Temp: 17.9°C   Baro: 1015.5mb
  Wind: 9.0mph   Dir: WNW (285°)
  Rain: 9.6mm (0.0mm/hr)
  Solar: 686W/m2  Hum: 66%
 
Bath Spa Weather Historical Data
Daily Summary for July 12, 2019 Units:  Metric    English   Both
Next Day »
Daily Weekly Monthly Yearly Custom
  High: Low: Average:
Temperature: 24.1 °C 15.7 °C 19.3 °C
Dew Point: 15.4 °C 11.5 °C 14 °C
Humidity: 93% 52% 73%
Wind Speed: 24.1km/h 0.0km/h 6.2km/h
Wind Gust: 24.1km/h - -
Wind direction- - West
Pressure: 1020.9 hPa 1012.8 hPa -
Precipitation: 0.5 mm    
Historical Graphs
 
 
Tabular Data for July 12, 2019
Time Temperature Dew Point Pressure Wind direction Wind Speed Wind Gust Humidity Rainfall Rate (Hourly) solar
00:04 16.8 °C 13.9 °C 1013.1 hPa WNW 4.7 km/h 11.3 km/h 83% 0.0 mm 0.00 W/m2
00:09 16.8 °C 13.9 °C 1013.1 hPa WNW 3.2 km/h 11.3 km/h 83% 0.0 mm 0.00 W/m2
00:14 16.8 °C 14.1 °C 1013.1 hPa WNW 3.2 km/h 6.4 km/h 84% 0.0 mm 0.00 W/m2
00:19 16.8 °C 14.1 °C 1013.1 hPa WNW 3.2 km/h 3.2 km/h 84% 0.0 mm 0.00 W/m2
00:24 16.8 °C 14.1 °C 1013.1 hPa WNW 3.2 km/h 8.0 km/h 84% 0.0 mm 0.00 W/m2
00:29 16.7 °C 14.0 °C 1013.1 hPa WNW 3.2 km/h 8.0 km/h 84% 0.0 mm 0.00 W/m2
00:34 16.7 °C 14.0 °C 1013.1 hPa West 1.4 km/h 11.3 km/h 84% 0.0 mm 0.00 W/m2
00:39 16.6 °C 14.1 °C 1013.1 hPa West 6.4 km/h 9.7 km/h 85% 0.0 mm 0.00 W/m2
00:44 16.5 °C 14.0 °C 1012.8 hPa WSW 9.7 km/h 9.7 km/h 85% 0.0 mm 0.00 W/m2
00:49 16.5 °C 14.0 °C 1013.1 hPa West 6.4 km/h 9.7 km/h 85% 0.0 mm 0.00 W/m2
00:54 16.5 °C 14.1 °C 1013.1 hPa WNW 4.7 km/h 11.3 km/h 86% 0.0 mm 0.00 W/m2
00:59 16.5 °C 14.1 °C 1013.1 hPa West 1.4 km/h 6.4 km/h 86% 0.0 mm 0.00 W/m2
01:04 16.5 °C 14.1 °C 1013.1 hPa WNW 1.4 km/h 6.4 km/h 86% 0.0 mm 0.00 W/m2
01:09 16.5 °C 14.1 °C 1013.1 hPa West 9.7 km/h 9.7 km/h 86% 0.0 mm 0.00 W/m2
01:14 16.6 °C 14.2 °C 1012.8 hPa WSW 13.0 km/h 12.9 km/h 86% 0.0 mm 0.00 W/m2
01:19 16.7 °C 14.3 °C 1013.1 hPa West 3.2 km/h 11.3 km/h 86% 0.0 mm 0.00 W/m2
01:24 16.7 °C 14.3 °C 1012.8 hPa West 9.7 km/h 9.7 km/h 86% 0.0 mm 0.00 W/m2
01:29 16.7 °C 14.3 °C 1012.8 hPa West 6.4 km/h 8.0 km/h 86% 0.0 mm 0.00 W/m2
01:34 16.7 °C 14.3 °C 1012.8 hPa West 4.7 km/h 11.3 km/h 86% 0.0 mm 0.00 W/m2
01:39 16.7 °C 14.3 °C 1012.8 hPa West 7.9 km/h 9.7 km/h 86% 0.0 mm 0.00 W/m2
01:44 16.7 °C 14.5 °C 1012.8 hPa West 3.2 km/h 6.4 km/h 87% 0.0 mm 0.00 W/m2
01:49 16.7 °C 14.5 °C 1012.8 hPa West 6.4 km/h 6.4 km/h 87% 0.0 mm 0.00 W/m2
01:54 16.7 °C 14.5 °C 1012.8 hPa West 7.9 km/h 9.7 km/h 87% 0.0 mm 0.00 W/m2
01:59 16.7 °C 14.5 °C 1012.8 hPa West 4.7 km/h 11.3 km/h 87% 0.0 mm 0.00 W/m2
02:04 16.7 °C 14.5 °C 1012.8 hPa West 3.2 km/h 8.0 km/h 87% 0.0 mm 0.00 W/m2
02:09 16.7 °C 14.5 °C 1012.8 hPa WNW 1.4 km/h 8.0 km/h 87% 0.0 mm 0.00 W/m2
02:14 16.7 °C 14.5 °C 1012.8 hPa West 7.9 km/h 9.7 km/h 87% 0.0 mm 0.00 W/m2
02:19 16.8 °C 14.6 °C 1012.8 hPa West 4.7 km/h 9.7 km/h 87% 0.0 mm 0.00 W/m2
02:24 16.8 °C 14.6 °C 1012.8 hPa West 4.7 km/h 8.0 km/h 87% 0.0 mm 0.00 W/m2
02:29 16.7 °C 14.5 °C 1012.8 hPa West 3.2 km/h 9.7 km/h 87% 0.0 mm 0.00 W/m2
02:34 16.8 °C 14.8 °C 1012.8 hPa West 6.4 km/h 8.0 km/h 88% 0.0 mm 0.00 W/m2
02:39 16.7 °C 14.7 °C 1012.8 hPa WNW 6.4 km/h 9.7 km/h 88% 0.3 mm 0.00 W/m2
02:44 16.7 °C 14.9 °C 1012.8 hPa WNW 11.1 km/h 11.3 km/h 89% 0.5 mm 0.00 W/m2
02:49 16.5 °C 14.7 °C 1012.8 hPa WNW 1.4 km/h 6.4 km/h 89% 0.5 mm 0.00 W/m2
02:54 16.5 °C 14.7 °C 1012.8 hPa West 4.7 km/h 9.7 km/h 89% 0.5 mm 0.00 W/m2
02:59 16.4 °C 14.8 °C 1012.8 hPa West 7.9 km/h 8.0 km/h 90% 0.5 mm 0.00 W/m2
03:04 16.4 °C 14.8 °C 1012.8 hPa West 3.2 km/h 6.4 km/h 90% 0.5 mm 0.00 W/m2
03:09 16.3 °C 14.8 °C 1012.8 hPa WNW 3.2 km/h 6.4 km/h 91% 0.5 mm 0.00 W/m2
03:14 16.3 °C 14.8 °C 1012.8 hPa WNW 1.4 km/h 6.4 km/h 91% 0.5 mm 0.00 W/m2
03:19 16.3 °C 14.8 °C 1012.8 hPa WNW 1.4 km/h 4.8 km/h 91% 0.5 mm 0.00 W/m2
03:24 16.3 °C 14.8 °C 1012.8 hPa Calm   4.8 km/h 91% 0.5 mm 0.00 W/m2
03:29 16.3 °C 14.8 °C 1012.8 hPa WNW 1.4 km/h 4.8 km/h 91% 0.5 mm 0.00 W/m2
03:34 16.3 °C 14.8 °C 1013.1 hPa Calm   4.8 km/h 91% 0.5 mm 0.00 W/m2
03:39 16.3 °C 15.0 °C 1013.1 hPa WNW 3.2 km/h 4.8 km/h 92% 0.0 mm 0.00 W/m2
03:44 16.2 °C 14.9 °C 1013.1 hPa Calm   3.2 km/h 92% 0.0 mm 0.00 W/m2
03:49 16.2 °C 14.9 °C 1013.1 hPa Calm     92% 0.0 mm 0.00 W/m2
03:54 16.3 °C 15.0 °C 1012.8 hPa Calm     92% 0.0 mm 0.00 W/m2
03:59 16.3 °C 15.0 °C 1012.8 hPa WNW 4.7 km/h 4.8 km/h 92% 0.0 mm 0.00 W/m2
04:04 16.3 °C 15.0 °C 1012.8 hPa WNW 1.4 km/h 4.8 km/h 92% 0.0 mm 0.00 W/m2
04:09 16.3 °C 15.0 °C 1012.8 hPa WNW 3.2 km/h 6.4 km/h 92% 0.0 mm 0.00 W/m2
04:14 16.2 °C 14.9 °C 1012.8 hPa West 8.0 km/h 8.0 km/h 92% 0.0 mm 0.00 W/m2
04:19 16.2 °C 14.9 °C 1012.8 hPa West 4.7 km/h 6.4 km/h 92% 0.0 mm 0.00 W/m2
04:24 16.2 °C 15.1 °C 1012.8 hPa Calm   1.6 km/h 93% 0.0 mm 0.00 W/m2
04:29 16.2 °C 15.1 °C 1013.1 hPa West 6.4 km/h 6.4 km/h 93% 0.0 mm 0.00 W/m2
04:34 16.1 °C 15.0 °C 1013.1 hPa West 3.2 km/h 6.4 km/h 93% 0.0 mm 0.00 W/m2
04:39 16.0 °C 14.9 °C 1012.8 hPa West 4.7 km/h 6.4 km/h 93% 0.0 mm 0.00 W/m2
04:44 16.0 °C 14.9 °C 1012.8 hPa West 3.2 km/h 4.8 km/h 93% 0.0 mm 0.00 W/m2
04:49 16.0 °C 14.9 °C 1012.8 hPa West 1.4 km/h 3.2 km/h 93% 0.0 mm 0.00 W/m2
04:54 16.0 °C 14.9 °C 1013.1 hPa Calm   3.2 km/h 93% 0.0 mm 0.00 W/m2
04:59 16.0 °C 14.9 °C 1013.1 hPa West 1.4 km/h 3.2 km/h 93% 0.0 mm 0.00 W/m2
05:04 16.0 °C 14.9 °C 1013.1 hPa West 3.2 km/h 3.2 km/h 93% 0.0 mm 0.00 W/m2
05:09 16.0 °C 14.9 °C 1013.1 hPa Calm   6.4 km/h 93% 0.0 mm 0.00 W/m2
05:14 15.9 °C 14.8 °C 1013.1 hPa West 1.4 km/h 4.8 km/h 93% 0.0 mm 5.00 W/m2
05:19 15.9 °C 14.8 °C 1013.4 hPa West 1.4 km/h 3.2 km/h 93% 0.0 mm 7.00 W/m2
05:24 15.9 °C 14.8 °C 1013.4 hPa Calm   9.7 km/h 93% 0.0 mm 7.00 W/m2
05:29 15.9 °C 14.8 °C 1013.4 hPa West 6.4 km/h 6.4 km/h 93% 0.0 mm 9.00 W/m2
05:34 15.9 °C 14.8 °C 1013.4 hPa West 3.2 km/h 4.8 km/h 93% 0.0 mm 7.00 W/m2
05:39 15.9 °C 14.8 °C 1013.4 hPa West 1.4 km/h 6.4 km/h 93% 0.0 mm 9.00 W/m2
05:44 15.9 °C 14.8 °C 1013.4 hPa West 3.2 km/h 4.8 km/h 93% 0.0 mm 9.00 W/m2
05:49 15.9 °C 14.8 °C 1013.4 hPa West 8.0 km/h 8.0 km/h 93% 0.0 mm 11.00 W/m2
05:54 15.8 °C 14.7 °C 1013.4 hPa West 3.2 km/h 6.4 km/h 93% 0.0 mm 11.00 W/m2
05:59 15.8 °C 14.7 °C 1013.8 hPa West 4.7 km/h 9.7 km/h 93% 0.0 mm 21.00 W/m2
06:04 15.8 °C 14.7 °C 1013.8 hPa WSW 11.1 km/h 11.3 km/h 93% 0.0 mm 25.00 W/m2
06:09 15.9 °C 14.8 °C 1013.8 hPa Calm   6.4 km/h 93% 0.0 mm 28.00 W/m2
06:14 15.9 °C 14.8 °C 1013.8 hPa WSW 7.9 km/h 8.0 km/h 93% 0.0 mm 28.00 W/m2
06:19 15.9 °C 14.8 °C 1013.8 hPa WNW 3.2 km/h 12.9 km/h 93% 0.0 mm 23.00 W/m2
06:24 15.8 °C 14.7 °C 1013.8 hPa West 6.4 km/h 11.3 km/h 93% 0.0 mm 32.00 W/m2
06:29 15.8 °C 14.7 °C 1014.1 hPa West 4.7 km/h 11.3 km/h 93% 0.0 mm 30.00 W/m2
06:34 15.8 °C 14.7 °C 1014.1 hPa West 7.9 km/h 9.7 km/h 93% 0.0 mm 37.00 W/m2
06:39 15.7 °C 14.6 °C 1014.1 hPa West 1.4 km/h 8.0 km/h 93% 0.0 mm 39.00 W/m2
06:44 15.7 °C 14.6 °C 1014.1 hPa Calm   4.8 km/h 93% 0.0 mm 47.00 W/m2
06:49 15.7 °C 14.6 °C 1014.1 hPa West 4.7 km/h 8.0 km/h 93% 0.0 mm 62.00 W/m2
06:54 15.7 °C 14.6 °C 1014.1 hPa Calm   3.2 km/h 93% 0.0 mm 72.00 W/m2
06:59 15.7 °C 14.6 °C 1014.1 hPa West 1.4 km/h 1.6 km/h 93% 0.0 mm 93.00 W/m2
07:04 15.8 °C 14.7 °C 1014.1 hPa West 3.2 km/h 6.4 km/h 93% 0.0 mm 102.00 W/m2
07:09 15.8 °C 14.7 °C 1014.1 hPa West 1.4 km/h 6.4 km/h 93% 0.0 mm 123.00 W/m2
07:14 15.9 °C 14.8 °C 1014.4 hPa West 1.4 km/h 4.8 km/h 93% 0.0 mm 142.00 W/m2
07:19 16.0 °C 14.9 °C 1014.4 hPa West 3.2 km/h 4.8 km/h 93% 0.0 mm 139.00 W/m2
07:24 16.0 °C 14.9 °C 1014.4 hPa Calm   3.2 km/h 93% 0.0 mm 107.00 W/m2
07:29 16.1 °C 15.0 °C 1014.4 hPa West 1.4 km/h 3.2 km/h 93% 0.0 mm 218.00 W/m2
07:34 16.2 °C 15.1 °C 1014.4 hPa West 3.2 km/h 6.4 km/h 93% 0.0 mm 134.00 W/m2
07:39 16.4 °C 15.3 °C 1014.4 hPa West 6.4 km/h 11.3 km/h 93% 0.0 mm 320.00 W/m2
07:44 16.5 °C 15.4 °C 1014.4 hPa WNW 3.2 km/h 9.7 km/h 93% 0.0 mm 197.00 W/m2
07:49 16.7 °C 15.4 °C 1014.4 hPa NW 14.5 km/h 14.5 km/h 92% 0.0 mm 181.00 W/m2
07:54 16.7 °C 15.4 °C 1014.8 hPa Calm   9.7 km/h 92% 0.0 mm 158.00 W/m2
07:59 16.8 °C 15.3 °C 1014.4 hPa West 7.9 km/h 8.0 km/h 91% 0.0 mm 142.00 W/m2
08:04 16.7 °C 15.1 °C 1014.4 hPa NW 11.1 km/h 14.5 km/h 90% 0.0 mm 338.00 W/m2
08:09 16.8 °C 14.8 °C 1014.4 hPa WNW 6.4 km/h 14.5 km/h 88% 0.0 mm 246.00 W/m2
08:14 17.1 °C 14.7 °C 1014.4 hPa WNW 6.4 km/h 9.7 km/h 86% 0.0 mm 311.00 W/m2
08:19 17.3 °C 14.6 °C 1014.8 hPa NW 4.7 km/h 11.3 km/h 84% 0.0 mm 330.00 W/m2
08:24 17.6 °C 14.7 °C 1014.8 hPa NW 7.9 km/h 11.3 km/h 83% 0.0 mm 345.00 W/m2
08:29 17.6 °C 14.3 °C 1014.4 hPa NW 6.4 km/h 14.5 km/h 81% 0.0 mm 359.00 W/m2
08:34 17.8 °C 14.3 °C 1014.8 hPa NW 9.7 km/h 11.3 km/h 80% 0.0 mm 374.00 W/m2
08:39 18.1 °C 14.2 °C 1014.8 hPa NNW 1.4 km/h 9.7 km/h 78% 0.0 mm 399.00 W/m2
08:44 18.4 °C 14.3 °C 1014.8 hPa North 12.9 km/h 12.9 km/h 77% 0.0 mm 424.00 W/m2
08:49 18.3 °C 13.8 °C 1014.8 hPa WNW 7.9 km/h 14.5 km/h 75% 0.0 mm 429.00 W/m2
08:54 18.5 °C 13.8 °C 1014.8 hPa North 1.4 km/h 12.9 km/h 74% 0.0 mm 438.00 W/m2
08:59 18.7 °C 13.8 °C 1014.8 hPa NW 4.7 km/h 16.1 km/h 73% 0.0 mm 448.00 W/m2
09:04 18.8 °C 13.6 °C 1014.8 hPa NNW 9.7 km/h 14.5 km/h 72% 0.0 mm 457.00 W/m2
09:09 19.2 °C 14.0 °C 1014.8 hPa North 9.7 km/h 9.7 km/h 72% 0.0 mm 483.00 W/m2
09:14 18.9 °C 13.5 °C 1014.8 hPa North 9.7 km/h 11.3 km/h 71% 0.0 mm 499.00 W/m2
09:19 19.0 °C 13.2 °C 1014.8 hPa NW 7.9 km/h 16.1 km/h 69% 0.0 mm 473.00 W/m2
09:24 19.1 °C 13.5 °C 1014.8 hPa NNW 6.4 km/h 14.5 km/h 70% 0.3 mm 570.00 W/m2
09:29 19.0 °C 13.4 °C 1014.8 hPa North 11.1 km/h 12.9 km/h 70% 0.3 mm 548.00 W/m2
09:34 19.4 °C 13.6 °C 1014.8 hPa North 3.2 km/h 11.3 km/h 69% 0.3 mm 568.00 W/m2
09:39 19.5 °C 13.2 °C 1014.8 hPa North 9.7 km/h 19.3 km/h 67% 0.3 mm 591.00 W/m2
09:44 19.7 °C 13.4 °C 1014.8 hPa NW 3.2 km/h 12.9 km/h 67% 0.3 mm 183.00 W/m2
09:49 19.6 °C 13.3 °C 1014.8 hPa North 7.9 km/h 12.9 km/h 67% 0.3 mm 682.00 W/m2
09:54 19.6 °C 13.1 °C 1015.1 hPa NW 6.4 km/h 12.9 km/h 66% 0.3 mm 139.00 W/m2
09:59 19.5 °C 13.0 °C 1015.1 hPa NW 9.7 km/h 12.9 km/h 66% 0.3 mm 645.00 W/m2
10:04 19.7 °C 13.2 °C 1015.1 hPa NW 13.0 km/h 16.1 km/h 66% 0.3 mm 628.00 W/m2
10:09 19.9 °C 13.1 °C 1015.1 hPa NNW 14.3 km/h 19.3 km/h 65% 0.3 mm 649.00 W/m2
10:14 20.0 °C 13.0 °C 1015.1 hPa Calm   14.5 km/h 64% 0.3 mm 700.00 W/m2
10:19 20.2 °C 13.2 °C 1015.1 hPa NW 4.7 km/h 17.7 km/h 64% 0.3 mm 814.00 W/m2
10:24 20.2 °C 13.2 °C 1015.1 hPa WNW 9.7 km/h 20.9 km/h 64% 0.0 mm 209.00 W/m2
10:29 19.8 °C 13.3 °C 1015.1 hPa NNW 3.2 km/h 17.7 km/h 66% 0.0 mm 167.00 W/m2
10:34 20.1 °C 13.5 °C 1015.1 hPa WNW 6.4 km/h 12.9 km/h 66% 0.0 mm 747.00 W/m2
10:39 20.4 °C 13.6 °C 1015.1 hPa WNW 11.1 km/h 14.5 km/h 65% 0.0 mm 789.00 W/m2
10:44 20.3 °C 13.5 °C 1015.1 hPa NW 14.3 km/h 14.5 km/h 65% 0.0 mm 169.00 W/m2
10:49 20.4 °C 14.1 °C 1015.1 hPa West 6.4 km/h 17.7 km/h 67% 0.0 mm 763.00 W/m2
10:54 20.9 °C 14.1 °C 1015.1 hPa NNW 9.7 km/h 14.5 km/h 65% 0.0 mm 865.00 W/m2
10:59 20.8 °C 14.2 °C 1015.1 hPa NW 7.9 km/h 14.5 km/h 66% 0.0 mm 777.00 W/m2
11:04 20.4 °C 14.1 °C 1015.5 hPa NW 4.7 km/h 17.7 km/h 67% 0.0 mm 376.00 W/m2
11:09 20.7 °C 14.4 °C 1015.5 hPa NW 7.9 km/h 12.9 km/h 67% 0.0 mm 309.00 W/m2
11:14 20.7 °C 14.6 °C 1015.5 hPa NNE 9.7 km/h 11.3 km/h 68% 0.0 mm 990.00 W/m2
11:19 20.9 °C 14.5 °C 1015.5 hPa NW 7.9 km/h 11.3 km/h 67% 0.0 mm 997.00 W/m2
11:24 20.6 °C 14.3 °C 1015.5 hPa NNW 4.7 km/h 16.1 km/h 67% 0.0 mm 828.00 W/m2
11:29 21.1 °C 14.7 °C 1015.5 hPa NW 7.9 km/h 9.7 km/h 67% 0.0 mm 991.00 W/m2
11:34 21.2 °C 14.8 °C 1015.5 hPa WNW 7.9 km/h 14.5 km/h 67% 0.0 mm 255.00 W/m2
11:39 20.7 °C 14.6 °C 1015.5 hPa NW 13.0 km/h 12.9 km/h 68% 0.0 mm 816.00 W/m2
11:44 21.0 °C 14.6 °C 1015.5 hPa NNW 1.4 km/h 16.1 km/h 67% 0.0 mm 884.00 W/m2
11:49 21.2 °C 14.4 °C 1015.5 hPa WNW 7.9 km/h 14.5 km/h 65% 0.0 mm 923.00 W/m2
11:54 20.8 °C 14.2 °C 1015.5 hPa West 4.7 km/h 11.3 km/h 66% 0.0 mm 248.00 W/m2
11:59 20.8 °C 14.4 °C 1015.5 hPa WNW 11.1 km/h 12.9 km/h 67% 0.0 mm 287.00 W/m2
12:04 21.2 °C 14.4 °C 1015.5 hPa NW 6.4 km/h 16.1 km/h 65% 0.0 mm 422.00 W/m2
12:09 21.2 °C 14.6 °C 1015.5 hPa North 7.9 km/h 19.3 km/h 66% 0.0 mm 221.00 W/m2
12:14 21.0 °C 14.2 °C 1015.8 hPa NNE 7.9 km/h 14.5 km/h 65% 0.0 mm 171.00 W/m2
12:19 21.2 °C 14.6 °C 1015.8 hPa WNW 9.7 km/h 16.1 km/h 66% 0.0 mm 898.00 W/m2
12:24 21.6 °C 14.7 °C 1015.5 hPa West 7.9 km/h 14.5 km/h 65% 0.0 mm 940.00 W/m2
12:29 21.7 °C 14.6 °C 1015.5 hPa Calm   9.7 km/h 64% 0.0 mm 705.00 W/m2
12:34 21.9 °C 13.8 °C 1015.5 hPa WNW 4.7 km/h 17.7 km/h 60% 0.0 mm 371.00 W/m2
12:39 21.7 °C 13.8 °C 1015.5 hPa NW 7.9 km/h 12.9 km/h 61% 0.0 mm 329.00 W/m2
12:44 21.7 °C 14.1 °C 1015.5 hPa NNW 9.7 km/h 17.7 km/h 62% 0.0 mm 313.00 W/m2
12:49 21.4 °C 13.8 °C 1015.8 hPa North 24.1 km/h 24.1 km/h 62% 0.0 mm 216.00 W/m2
12:54 21.4 °C 14.1 °C 1015.8 hPa NW 7.9 km/h 14.5 km/h 63% 0.0 mm 237.00 W/m2
12:59 21.5 °C 13.9 °C 1015.8 hPa NW 16.3 km/h 16.1 km/h 62% 0.0 mm 933.00 W/m2
13:04 21.9 °C 14.0 °C 1015.5 hPa West 11.1 km/h 17.7 km/h 61% 0.0 mm 851.00 W/m2
13:09 22.4 °C 13.7 °C 1015.5 hPa WNW 13.0 km/h 17.7 km/h 58% 0.0 mm 884.00 W/m2
13:14 22.5 °C 14.1 °C 1015.8 hPa West 7.9 km/h 11.3 km/h 59% 0.0 mm 954.00 W/m2
13:19 23.4 °C 13.6 °C 1015.8 hPa NW 3.2 km/h 11.3 km/h 54% 0.0 mm 923.00 W/m2
13:24 23.2 °C 13.1 °C 1015.8 hPa WNW 16.3 km/h 19.3 km/h 53% 0.0 mm 360.00 W/m2
13:29 22.7 °C 12.9 °C 1015.8 hPa NW 4.7 km/h 17.7 km/h 54% 0.0 mm 246.00 W/m2
13:34 22.9 °C 13.7 °C 1015.8 hPa North 16.3 km/h 20.9 km/h 56% 0.0 mm 933.00 W/m2
13:39 23.2 °C 13.1 °C 1015.8 hPa West 11.1 km/h 14.5 km/h 53% 0.0 mm 339.00 W/m2
13:44 23.3 °C 14.0 °C 1015.8 hPa Calm   11.3 km/h 56% 0.0 mm 313.00 W/m2
13:49 23.1 °C 13.8 °C 1015.8 hPa WNW 3.2 km/h 14.5 km/h 56% 0.0 mm 199.00 W/m2
13:54 22.8 °C 13.3 °C 1015.8 hPa NW 9.7 km/h 12.9 km/h 55% 0.0 mm 322.00 W/m2
13:59 22.9 °C 13.7 °C 1015.8 hPa WNW 4.7 km/h 19.3 km/h 56% 0.0 mm 682.00 W/m2
14:04 23.0 °C 13.2 °C 1015.8 hPa NW 3.2 km/h 19.3 km/h 54% 0.0 mm 364.00 W/m2
14:09 23.2 °C 13.4 °C 1015.8 hPa NW 6.4 km/h 20.9 km/h 54% 0.0 mm 875.00 W/m2
14:14 23.3 °C 13.2 °C 1015.8 hPa NW 4.7 km/h 14.5 km/h 53% 0.0 mm 174.00 W/m2
14:19 23.5 °C 13.7 °C 1015.8 hPa North 14.3 km/h 16.1 km/h 54% 0.0 mm 911.00 W/m2
14:24 23.6 °C 13.2 °C 1015.8 hPa NNW 1.4 km/h 16.1 km/h 52% 0.0 mm 1023.00 W/m2
14:29 23.5 °C 13.1 °C 1015.8 hPa NW 9.7 km/h 22.5 km/h 52% 0.0 mm 223.00 W/m2
14:34 23.7 °C 14.1 °C 1015.8 hPa NNE 22.7 km/h 22.5 km/h 55% 0.0 mm 868.00 W/m2
14:39 24.1 °C 13.9 °C 1015.8 hPa NNW 6.4 km/h 14.5 km/h 53% 0.0 mm 881.00 W/m2
14:44 23.6 °C 13.5 °C 1016.1 hPa NNE 13.0 km/h 19.3 km/h 53% 0.0 mm 967.00 W/m2
14:49 23.0 °C 13.7 °C 1016.1 hPa NNW 16.3 km/h 20.9 km/h 56% 0.0 mm 271.00 W/m2
14:54 22.9 °C 13.9 °C 1016.1 hPa WNW 11.1 km/h 17.7 km/h 57% 0.0 mm 246.00 W/m2
14:59 22.9 °C 13.7 °C 1016.1 hPa WNW 3.2 km/h 12.9 km/h 56% 0.0 mm 244.00 W/m2
15:04 22.7 °C 13.5 °C 1016.1 hPa NW 3.2 km/h 14.5 km/h 56% 0.0 mm 171.00 W/m2
15:09 22.5 °C 13.6 °C 1016.1 hPa NNW 9.7 km/h 14.5 km/h 57% 0.0 mm 332.00 W/m2
15:14 22.7 °C 13.7 °C 1016.1 hPa NNW 3.2 km/h 12.9 km/h 57% 0.0 mm 327.00 W/m2
15:19 22.7 °C 13.5 °C 1016.1 hPa NNE 7.9 km/h 16.1 km/h 56% 0.0 mm 186.00 W/m2
15:24 22.7 °C 13.5 °C 1016.1 hPa NNW 4.7 km/h 12.9 km/h 56% 0.0 mm 223.00 W/m2
15:29 22.8 °C 13.6 °C 1016.1 hPa NW 9.7 km/h 16.1 km/h 56% 0.0 mm 800.00 W/m2
15:34 23.3 °C 13.8 °C 1016.1 hPa NNW 7.9 km/h 17.7 km/h 55% 0.0 mm 784.00 W/m2
15:39 23.4 °C 13.6 °C 1016.1 hPa NW 16.3 km/h 19.3 km/h 54% 0.0 mm 782.00 W/m2
15:44 23.4 °C 13.6 °C 1016.1 hPa NNW 7.9 km/h 19.3 km/h 54% 0.0 mm 798.00 W/m2
15:49 23.6 °C 13.7 °C 1016.1 hPa NW 7.9 km/h 19.3 km/h 54% 0.0 mm 761.00 W/m2
15:54 23.3 °C 13.5 °C 1016.1 hPa Calm   19.3 km/h 54% 0.0 mm 768.00 W/m2
15:59 24.0 °C 14.1 °C 1016.1 hPa NW 9.7 km/h 24.1 km/h 54% 0.0 mm 793.00 W/m2
16:04 23.8 °C 13.9 °C 1016.1 hPa NNW 4.7 km/h 14.5 km/h 54% 0.0 mm 840.00 W/m2
16:09 23.9 °C 13.4 °C 1016.1 hPa NNW 6.4 km/h 20.9 km/h 52% 0.0 mm 749.00 W/m2
16:14 23.5 °C 13.1 °C 1016.1 hPa WNW 6.4 km/h 17.7 km/h 52% 0.0 mm 155.00 W/m2
16:19 23.2 °C 13.4 °C 1016.1 hPa WNW 9.7 km/h 16.1 km/h 54% 0.0 mm 185.00 W/m2
16:24 23.4 °C 13.8 °C 1016.1 hPa West 3.2 km/h 19.3 km/h 55% 0.0 mm 199.00 W/m2
16:29 23.7 °C 14.1 °C 1016.1 hPa NNE 6.4 km/h 9.7 km/h 55% 0.0 mm 788.00 W/m2
16:34 24.1 °C 14.2 °C 1016.1 hPa NW 14.3 km/h 19.3 km/h 54% 0.0 mm 733.00 W/m2
16:39 24.1 °C 13.9 °C 1016.5 hPa NW 16.3 km/h 19.3 km/h 53% 0.0 mm 765.00 W/m2
16:44 24.0 °C 13.8 °C 1016.1 hPa WNW 9.7 km/h 17.7 km/h 53% 0.0 mm 737.00 W/m2
16:49 23.4 °C 13.8 °C 1016.5 hPa North 19.3 km/h 19.3 km/h 55% 0.0 mm 197.00 W/m2
16:54 23.2 °C 14.2 °C 1016.5 hPa WNW 6.4 km/h 24.1 km/h 57% 0.0 mm 714.00 W/m2
16:59 23.5 °C 14.2 °C 1016.5 hPa WNW 22.7 km/h 22.5 km/h 56% 0.0 mm 661.00 W/m2
17:04 23.7 °C 14.4 °C 1016.5 hPa NW 11.1 km/h 17.7 km/h 56% 0.0 mm 642.00 W/m2
17:09 23.8 °C 14.2 °C 1016.5 hPa North 17.7 km/h 19.3 km/h 55% 0.0 mm 613.00 W/m2
17:14 23.7 °C 14.4 °C 1016.5 hPa North 9.7 km/h 24.1 km/h 56% 0.0 mm 591.00 W/m2
17:19 23.6 °C 14.3 °C 1016.5 hPa NNW 16.3 km/h 16.1 km/h 56% 0.0 mm 571.00 W/m2
17:24 23.5 °C 14.2 °C 1016.5 hPa NNE 13.0 km/h 14.5 km/h 56% 0.0 mm 554.00 W/m2
17:29 23.5 °C 13.9 °C 1016.5 hPa NNW 4.7 km/h 17.7 km/h 55% 0.0 mm 559.00 W/m2
17:34 23.3 °C 14.0 °C 1016.5 hPa WNW 13.0 km/h 17.7 km/h 56% 0.0 mm 74.00 W/m2
17:39 22.5 °C 13.8 °C 1016.5 hPa NNW 3.2 km/h 16.1 km/h 58% 0.0 mm 91.00 W/m2
17:44 22.5 °C 13.8 °C 1016.5 hPa NW 16.3 km/h 16.1 km/h 58% 0.0 mm 517.00 W/m2
17:49 22.8 °C 13.8 °C 1016.5 hPa NNW 6.4 km/h 17.7 km/h 57% 0.0 mm 494.00 W/m2
17:54 23.0 °C 13.7 °C 1016.5 hPa NW 11.1 km/h 19.3 km/h 56% 0.0 mm 462.00 W/m2
17:59 23.1 °C 14.1 °C 1016.5 hPa NW 14.3 km/h 20.9 km/h 57% 0.0 mm 459.00 W/m2
18:04 23.5 °C 14.5 °C 1016.8 hPa NW 13.0 km/h 14.5 km/h 57% 0.0 mm 441.00 W/m2
18:09 23.5 °C 14.2 °C 1016.8 hPa NNW 9.7 km/h 14.5 km/h 56% 0.0 mm 427.00 W/m2
18:14 23.4 °C 13.8 °C 1016.8 hPa NW 7.9 km/h 24.1 km/h 55% 0.0 mm 413.00 W/m2
18:19 23.3 °C 14.0 °C 1016.8 hPa NW 4.7 km/h 14.5 km/h 56% 0.0 mm 403.00 W/m2
18:24 23.0 °C 13.7 °C 1016.8 hPa North 6.4 km/h 11.3 km/h 56% 0.0 mm 81.00 W/m2
18:29 22.5 °C 13.8 °C 1016.8 hPa North 3.2 km/h 19.3 km/h 58% 0.0 mm 404.00 W/m2
18:34 22.8 °C 13.8 °C 1016.8 hPa NNW 13.0 km/h 19.3 km/h 57% 0.0 mm 417.00 W/m2
18:39 22.9 °C 13.9 °C 1016.8 hPa NW 4.7 km/h 16.1 km/h 57% 0.0 mm 390.00 W/m2
18:44 23.0 °C 14.0 °C 1017.2 hPa North 14.3 km/h 19.3 km/h 57% 0.0 mm 367.00 W/m2
18:49 22.8 °C 14.1 °C 1017.2 hPa NNW 11.1 km/h 24.1 km/h 58% 0.0 mm 95.00 W/m2
18:54 22.2 °C 14.1 °C 1017.2 hPa North 4.7 km/h 17.7 km/h 60% 0.0 mm 83.00 W/m2
18:59 22.1 °C 14.2 °C 1017.5 hPa NNW 6.4 km/h 20.9 km/h 61% 0.0 mm 83.00 W/m2
19:04 22.1 °C 14.2 °C 1017.5 hPa NW 7.9 km/h 9.7 km/h 61% 0.0 mm 105.00 W/m2
19:09 22.0 °C 14.4 °C 1017.5 hPa NNW 6.4 km/h 17.7 km/h 62% 0.0 mm 98.00 W/m2
19:14 21.8 °C 14.4 °C 1017.8 hPa NNW 11.1 km/h 19.3 km/h 63% 0.0 mm 132.00 W/m2
19:19 21.9 °C 14.5 °C 1017.8 hPa NNE 9.7 km/h 19.3 km/h 63% 0.0 mm 262.00 W/m2
19:24 22.3 °C 14.9 °C 1017.8 hPa NNW 1.4 km/h 11.3 km/h 63% 0.0 mm 244.00 W/m2
19:29 22.1 °C 14.7 °C 1017.8 hPa North 3.2 km/h 20.9 km/h 63% 0.0 mm 236.00 W/m2
19:34 22.1 °C 14.7 °C 1017.8 hPa NNW 14.3 km/h 19.3 km/h 63% 0.0 mm 258.00 W/m2
19:39 22.2 °C 14.8 °C 1017.8 hPa North 1.4 km/h 11.3 km/h 63% 0.0 mm 250.00 W/m2
19:44 22.0 °C 14.6 °C 1017.8 hPa NE 13.0 km/h 17.7 km/h 63% 0.0 mm 220.00 W/m2
19:49 21.9 °C 14.8 °C 1017.8 hPa NNE 4.7 km/h 11.3 km/h 64% 0.0 mm 139.00 W/m2
19:54 21.7 °C 14.8 °C 1017.8 hPa NW 7.9 km/h 19.3 km/h 65% 0.0 mm 137.00 W/m2
19:59 21.5 °C 14.6 °C 1018.2 hPa North 13.0 km/h 20.9 km/h 65% 0.0 mm 63.00 W/m2
20:04 21.2 °C 14.6 °C 1018.2 hPa NNW 6.4 km/h 14.5 km/h 66% 0.0 mm 63.00 W/m2
20:09 20.9 °C 14.3 °C 1018.2 hPa NNE 7.9 km/h 14.5 km/h 66% 0.0 mm 114.00 W/m2
20:14 21.0 °C 14.4 °C 1018.2 hPa North 4.7 km/h 9.7 km/h 66% 0.0 mm 107.00 W/m2
20:19 21.2 °C 14.6 °C 1018.5 hPa NE 7.9 km/h 12.9 km/h 66% 0.0 mm 72.00 W/m2
20:24 21.0 °C 14.4 °C 1018.2 hPa North 4.7 km/h 11.3 km/h 66% 0.0 mm 60.00 W/m2
20:29 20.8 °C 14.4 °C 1018.5 hPa Calm   6.4 km/h 67% 0.0 mm 44.00 W/m2
20:34 20.6 °C 14.3 °C 1018.5 hPa North 6.4 km/h 16.1 km/h 67% 0.0 mm 37.00 W/m2
20:39 20.5 °C 14.4 °C 1018.5 hPa NW 4.7 km/h 14.5 km/h 68% 0.0 mm 44.00 W/m2
20:44 20.4 °C 14.3 °C 1018.5 hPa WNW 4.7 km/h 14.5 km/h 68% 0.0 mm 25.00 W/m2
20:49 20.3 °C 14.2 °C 1018.5 hPa North 4.7 km/h 11.3 km/h 68% 0.0 mm 18.00 W/m2
20:54 20.3 °C 14.2 °C 1018.8 hPa NW 11.1 km/h 11.3 km/h 68% 0.0 mm 16.00 W/m2
20:59 20.0 °C 14.1 °C 1018.8 hPa WNW 4.7 km/h 8.0 km/h 69% 0.0 mm 16.00 W/m2
21:04 19.9 °C 14.0 °C 1018.8 hPa NNW 6.4 km/h 12.9 km/h 69% 0.0 mm 16.00 W/m2
21:09 19.6 °C 13.8 °C 1018.8 hPa NNW 4.7 km/h 16.1 km/h 69% 0.0 mm 12.00 W/m2
21:14 19.5 °C 13.7 °C 1018.8 hPa NW 19.3 km/h 19.3 km/h 69% 0.0 mm 7.00 W/m2
21:19 19.3 °C 13.5 °C 1019.2 hPa NW 9.7 km/h 14.5 km/h 69% 0.0 mm 0.00 W/m2
21:24 19.1 °C 13.5 °C 1019.2 hPa NNW 7.9 km/h 14.5 km/h 70% 0.0 mm 0.00 W/m2
21:29 19.0 °C 13.4 °C 1019.2 hPa West 6.4 km/h 9.7 km/h 70% 0.0 mm 0.00 W/m2
21:34 18.8 °C 13.2 °C 1019.2 hPa WNW 3.2 km/h 11.3 km/h 70% 0.0 mm 0.00 W/m2
21:39 18.7 °C 13.3 °C 1019.5 hPa Calm   6.4 km/h 71% 0.0 mm 0.00 W/m2
21:44 18.5 °C 13.1 °C 1019.5 hPa WNW 1.4 km/h 6.4 km/h 71% 0.0 mm 0.00 W/m2
21:49 18.3 °C 13.0 °C 1019.9 hPa NW 3.2 km/h 12.9 km/h 71% 0.0 mm 0.00 W/m2
21:54 18.1 °C 12.8 °C 1019.9 hPa Calm   4.8 km/h 71% 0.0 mm 0.00 W/m2
21:59 18.0 °C 12.9 °C 1019.9 hPa NW 3.2 km/h 6.4 km/h 72% 0.0 mm 0.00 W/m2
22:04 17.9 °C 12.8 °C 1019.9 hPa NW 3.2 km/h 6.4 km/h 72% 0.0 mm 0.00 W/m2
22:09 17.8 °C 12.7 °C 1019.9 hPa NW 1.4 km/h 3.2 km/h 72% 0.0 mm 0.00 W/m2
22:14 17.7 °C 12.8 °C 1019.9 hPa West 4.7 km/h 4.8 km/h 73% 0.0 mm 0.00 W/m2
22:19 17.6 °C 12.7 °C 1019.9 hPa West 4.7 km/h 4.8 km/h 73% 0.0 mm 0.00 W/m2
22:24 17.5 °C 12.6 °C 1020.2 hPa Calm   4.8 km/h 73% 0.0 mm 0.00 W/m2
22:29 17.4 °C 12.5 °C 1020.2 hPa Calm   3.2 km/h 73% 0.0 mm 0.00 W/m2
22:34 17.4 °C 12.5 °C 1020.2 hPa West 6.4 km/h 6.4 km/h 73% 0.0 mm 0.00 W/m2
22:39 17.3 °C 12.4 °C 1020.2 hPa West 1.4 km/h 6.4 km/h 73% 0.0 mm 0.00 W/m2
22:44 17.0 °C 12.3 °C 1020.2 hPa West 1.4 km/h 6.4 km/h 74% 0.0 mm 0.00 W/m2
22:49 16.9 °C 12.2 °C 1020.5 hPa West 3.2 km/h 9.7 km/h 74% 0.0 mm 0.00 W/m2
22:54 16.8 °C 12.1 °C 1020.5 hPa West 1.4 km/h 6.4 km/h 74% 0.0 mm 0.00 W/m2
22:59 16.6 °C 11.9 °C 1020.5 hPa West 3.2 km/h 8.0 km/h 74% 0.0 mm 0.00 W/m2
23:04 16.5 °C 11.8 °C 1020.5 hPa West 3.2 km/h 9.7 km/h 74% 0.0 mm 0.00 W/m2
23:09 16.4 °C 12.0 °C 1020.5 hPa West 4.7 km/h 8.0 km/h 75% 0.0 mm 0.00 W/m2
23:14 16.4 °C 12.0 °C 1020.5 hPa Calm   1.6 km/h 75% 0.0 mm 0.00 W/m2
23:19 16.3 °C 11.9 °C 1020.5 hPa Calm   1.6 km/h 75% 0.0 mm 0.00 W/m2
23:24 16.2 °C 11.8 °C 1020.9 hPa West 3.2 km/h 3.2 km/h 75% 0.0 mm 0.00 W/m2
23:29 16.1 °C 11.7 °C 1020.5 hPa Calm     75% 0.0 mm 0.00 W/m2
23:34 16.0 °C 11.6 °C 1020.9 hPa Calm   4.8 km/h 75% 0.0 mm 0.00 W/m2
23:39 16.0 °C 11.6 °C 1020.9 hPa WNW 3.2 km/h 3.2 km/h 75% 0.0 mm 0.00 W/m2
23:44 15.9 °C 11.7 °C 1020.9 hPa WNW 1.4 km/h 3.2 km/h 76% 0.0 mm 0.00 W/m2
23:49 15.9 °C 11.7 °C 1020.9 hPa Calm   3.2 km/h 76% 0.0 mm 0.00 W/m2
23:54 15.8 °C 11.6 °C 1020.9 hPa Calm     76% 0.0 mm 0.00 W/m2
23:59 15.7 °C 11.5 °C 1020.9 hPa Calm     76% 0.0 mm 0.00 W/m2